createdAt,value
2022-08-21T00:00:27.780Z,57.96
2022-08-21T00:02:30.660Z,57.34
2022-08-21T00:04:33.268Z,57.37
2022-08-21T00:06:36.873Z,57.66
2022-08-21T00:08:39.224Z,58.95
2022-08-21T00:10:43.298Z,59.79
2022-08-21T00:12:46.610Z,59.01
2022-08-21T00:14:52.048Z,59.08
2022-08-21T00:17:00.233Z,60.25
2022-08-21T00:19:03.137Z,59.50
2022-08-21T00:21:05.679Z,59.53
2022-08-21T00:23:08.772Z,59.30
2022-08-21T00:25:11.439Z,60.06
2022-08-21T00:27:17.198Z,59.33
2022-08-21T00:29:19.898Z,59.16
2022-08-21T00:31:22.374Z,58.81
2022-08-21T00:33:25.991Z,59.04
2022-08-21T00:35:34.436Z,60.12
2022-08-21T00:37:36.627Z,59.93
2022-08-21T00:39:39.423Z,59.50
2022-08-21T00:41:43.006Z,59.28
2022-08-21T00:43:45.097Z,60.00
2022-08-21T00:45:47.235Z,59.60
2022-08-21T00:47:51.036Z,59.40
2022-08-21T00:49:53.668Z,59.81
2022-08-21T00:52:01.035Z,59.56
2022-08-21T00:54:04.207Z,58.95
2022-08-21T00:56:10.489Z,59.54
2022-08-21T00:58:16.902Z,59.45
2022-08-21T01:00:26.465Z,59.78
2022-08-21T01:02:28.808Z,59.14
2022-08-21T01:04:33.765Z,59.02
2022-08-21T01:06:36.338Z,58.68
2022-08-21T01:08:39.016Z,58.52
2022-08-21T01:10:51.148Z,58.73
2022-08-21T01:13:01.246Z,58.69
2022-08-21T01:15:05.822Z,58.69
2022-08-21T01:17:08.799Z,58.27
2022-08-21T01:19:12.327Z,58.22
2022-08-21T01:21:22.544Z,58.74
2022-08-21T01:23:30.636Z,58.44
2022-08-21T01:25:34.046Z,58.93
2022-08-21T01:27:36.453Z,58.12
2022-08-21T01:29:46.485Z,58.95
2022-08-21T01:31:48.665Z,58.78
2022-08-21T01:33:50.728Z,58.49
2022-08-21T01:35:53.660Z,58.86
2022-08-21T01:37:55.763Z,58.39
2022-08-21T01:39:57.959Z,58.35
2022-08-21T01:42:00.098Z,58.78
2022-08-21T01:44:02.233Z,58.41
2022-08-21T01:46:05.740Z,58.52
2022-08-21T01:48:07.864Z,57.69
2022-08-21T01:50:15.824Z,58.01
2022-08-21T01:52:18.506Z,57.66
2022-08-21T01:54:21.005Z,57.41
2022-08-21T01:56:27.400Z,57.64
2022-08-21T01:58:29.648Z,58.18
2022-08-21T02:00:31.886Z,58.22
2022-08-21T02:02:34.312Z,58.17
2022-08-21T02:04:36.649Z,58.43
2022-08-21T02:06:39.404Z,58.33
2022-08-21T02:08:44.782Z,58.44
2022-08-21T02:10:48.892Z,58.39
2022-08-21T02:12:51.677Z,58.41
2022-08-21T02:14:54.324Z,58.50
2022-08-21T02:17:05.483Z,58.81
2022-08-21T02:19:14.414Z,58.99
2022-08-21T02:21:16.546Z,58.89
2022-08-21T02:23:18.759Z,58.40
2022-08-21T02:25:24.268Z,58.38
2022-08-21T02:27:27.645Z,58.15
2022-08-21T02:29:29.828Z,58.62
2022-08-21T02:31:32.656Z,58.43
2022-08-21T02:33:35.363Z,58.63
2022-08-21T02:35:39.727Z,59.80
2022-08-21T02:37:55.742Z,60.03
2022-08-21T02:39:58.070Z,59.55
2022-08-21T02:42:00.486Z,59.63
2022-08-21T02:44:05.585Z,60.79
2022-08-21T02:46:12.879Z,60.30
2022-08-21T02:48:18.406Z,60.67
2022-08-21T02:50:26.638Z,61.93
2022-08-21T02:52:29.550Z,61.60
2022-08-21T02:54:31.650Z,61.34
2022-08-21T02:56:33.989Z,61.11
2022-08-21T02:58:43.022Z,61.10
2022-08-21T03:00:46.131Z,60.91
2022-08-21T03:02:49.316Z,60.66
2022-08-21T03:04:51.471Z,60.81
2022-08-21T03:06:56.706Z,62.21
2022-08-21T03:08:58.995Z,61.72
2022-08-21T03:11:02.159Z,62.12
2022-08-21T03:13:04.866Z,61.99
2022-08-21T03:15:09.351Z,62.78
2022-08-21T03:17:11.623Z,62.01
2022-08-21T03:19:14.389Z,63.16
2022-08-21T03:21:17.153Z,63.42
2022-08-21T03:23:19.689Z,63.54
2022-08-21T03:25:40.004Z,63.74
2022-08-21T03:27:43.407Z,63.64
2022-08-21T03:29:46.824Z,63.91
2022-08-21T03:31:49.151Z,63.63
2022-08-21T03:33:52.103Z,63.71
2022-08-21T03:36:07.268Z,64.57
2022-08-21T03:38:09.746Z,63.29
2022-08-21T03:40:15.161Z,63.50
2022-08-21T03:42:18.134Z,63.41
2022-08-21T03:44:20.425Z,63.50
2022-08-21T03:46:22.523Z,63.37
2022-08-21T03:48:25.405Z,63.76
2022-08-21T03:50:32.225Z,63.57
2022-08-21T03:52:37.072Z,63.36
2022-08-21T03:54:41.089Z,63.45
2022-08-21T03:56:43.303Z,62.90
2022-08-21T03:58:47.098Z,62.39
2022-08-21T04:00:52.219Z,62.06
2022-08-21T04:02:54.753Z,61.77
2022-08-21T04:04:57.028Z,61.92
2022-08-21T04:06:59.722Z,62.48
2022-08-21T04:09:02.063Z,62.46
2022-08-21T04:11:04.772Z,62.15
2022-08-21T04:13:09.412Z,62.61
2022-08-21T04:15:11.655Z,63.01
2022-08-21T04:17:13.846Z,63.03
2022-08-21T04:19:16.835Z,62.20
2022-08-21T04:21:19.304Z,62.86
2022-08-21T04:23:27.322Z,62.74
2022-08-21T04:26:20.226Z,63.02
2022-08-21T04:28:23.818Z,62.87
2022-08-21T04:30:31.201Z,63.43
2022-08-21T04:32:33.493Z,63.55
2022-08-21T04:34:35.951Z,63.58
2022-08-21T04:36:40.144Z,63.60
2022-08-21T04:38:44.605Z,63.74
2022-08-21T04:40:47.178Z,63.79
2022-08-21T04:42:52.242Z,63.33
2022-08-21T04:44:54.999Z,62.85
2022-08-21T04:47:01.697Z,62.51
2022-08-21T04:49:06.025Z,62.53
2022-08-21T05:02:06.368Z,62.79
2022-08-21T05:15:07.797Z,64.22
2022-08-21T05:17:42.225Z,65.55
2022-08-21T05:18:27.036Z,62.67
2022-08-21T05:19:44.021Z,65.79
2022-08-21T05:21:48.508Z,65.42
2022-08-21T05:23:50.570Z,65.06
2022-08-21T05:25:54.361Z,65.30
2022-08-21T05:27:58.152Z,65.16
2022-08-21T05:30:06.626Z,64.89
2022-08-21T05:32:14.341Z,64.85
2022-08-21T05:34:23.091Z,64.39
2022-08-21T05:36:26.238Z,63.89
2022-08-21T05:38:32.027Z,63.93
2022-08-21T05:40:40.347Z,63.93
2022-08-21T05:42:42.816Z,63.94
2022-08-21T05:44:47.956Z,64.23
2022-08-21T05:46:52.807Z,63.98
2022-08-21T05:48:59.934Z,63.98
2022-08-21T05:51:11.526Z,64.17
2022-08-21T05:53:15.440Z,63.71
2022-08-21T05:55:18.005Z,63.14
2022-08-21T05:57:20.580Z,63.10
2022-08-21T05:59:23.305Z,62.95
2022-08-21T06:01:26.163Z,63.57
2022-08-21T06:03:31.863Z,64.05
2022-08-21T06:05:37.378Z,63.62
2022-08-21T06:08:05.604Z,64.05
2022-08-21T06:10:08.550Z,63.54
2022-08-21T06:12:12.881Z,63.78
2022-08-21T06:14:16.350Z,64.16
2022-08-21T06:16:18.965Z,63.58
2022-08-21T06:18:21.459Z,63.89
2022-08-21T06:20:24.901Z,64.25
2022-08-21T06:22:27.746Z,64.20
2022-08-21T06:24:30.132Z,64.25
2022-08-21T06:26:33.067Z,63.91
2022-08-21T06:28:36.811Z,63.84
2022-08-21T06:30:40.743Z,64.01
2022-08-21T06:32:43.393Z,64.08
2022-08-21T06:34:46.242Z,64.25
2022-08-21T06:36:48.529Z,64.00
2022-08-21T06:38:51.899Z,63.96
2022-08-21T06:40:54.742Z,64.86
2022-08-21T06:42:59.549Z,64.16
2022-08-21T06:45:03.878Z,65.01
2022-08-21T06:47:06.416Z,64.44
2022-08-21T06:49:08.757Z,64.38
2022-08-21T06:51:20.811Z,63.80
2022-08-21T06:53:23.599Z,63.28
2022-08-21T06:55:29.206Z,63.52
2022-08-21T06:57:31.678Z,63.57
2022-08-21T06:59:34.631Z,63.21
2022-08-21T07:01:37.740Z,63.16
2022-08-21T07:03:42.885Z,62.70
2022-08-21T07:05:45.363Z,62.25
2022-08-21T07:07:48.062Z,62.53
2022-08-21T07:09:50.540Z,62.96
2022-08-21T07:11:56.332Z,62.65
2022-08-21T07:13:59.663Z,62.71
2022-08-21T07:16:04.338Z,62.65
2022-08-21T07:18:07.572Z,63.13
2022-08-21T07:20:10.273Z,63.75
2022-08-21T07:22:14.883Z,63.18
2022-08-21T07:24:17.717Z,63.89
2022-08-21T07:26:22.732Z,63.58
2022-08-21T07:28:25.396Z,63.33
2022-08-21T07:30:28.311Z,62.75
2022-08-21T07:32:30.728Z,62.84
2022-08-21T07:34:33.475Z,62.73
2022-08-21T07:36:36.183Z,62.70
2022-08-21T07:38:39.963Z,62.67
2022-08-21T07:40:42.527Z,62.61
2022-08-21T07:42:48.091Z,62.68
2022-08-21T07:44:50.600Z,62.21
2022-08-21T07:46:55.216Z,62.58
2022-08-21T07:48:58.234Z,62.29
2022-08-21T07:51:06.815Z,61.86
2022-08-21T07:53:09.288Z,62.39
2022-08-21T07:55:16.326Z,62.16
2022-08-21T07:57:18.815Z,61.95
2022-08-21T07:59:24.099Z,61.75
2022-08-21T08:01:27.006Z,61.69
2022-08-21T08:03:30.974Z,61.57
2022-08-21T08:05:34.126Z,61.62
2022-08-21T08:07:37.041Z,61.28
2022-08-21T08:09:39.297Z,61.10
2022-08-21T08:11:44.877Z,61.37
2022-08-21T08:13:50.334Z,60.97
2022-08-21T08:15:53.164Z,61.11
2022-08-21T08:17:56.855Z,61.31
2022-08-21T08:20:02.259Z,60.94
2022-08-21T08:22:14.608Z,60.88
2022-08-21T08:24:18.382Z,60.62
2022-08-21T08:26:24.033Z,60.85
2022-08-21T08:28:28.487Z,61.02
2022-08-21T08:30:33.067Z,61.06
2022-08-21T08:32:35.852Z,60.58
2022-08-21T08:34:41.652Z,60.37
2022-08-21T08:36:44.360Z,59.90
2022-08-21T08:38:48.582Z,59.50
2022-08-21T08:40:50.954Z,59.18
2022-08-21T08:42:53.362Z,58.65
2022-08-21T08:45:02.478Z,58.20
2022-08-21T08:47:07.174Z,58.84
2022-08-21T08:49:17.449Z,58.80
2022-08-21T08:51:28.400Z,58.44
2022-08-21T08:53:49.740Z,58.59
2022-08-21T08:55:53.666Z,57.57
2022-08-21T08:57:57.272Z,57.82
2022-08-21T09:00:06.790Z,57.73
2022-08-21T09:02:13.994Z,58.25
2022-08-21T09:04:25.053Z,58.17
2022-08-21T09:06:33.744Z,57.48
2022-08-21T09:09:14.126Z,57.77
2022-08-21T09:12:00.490Z,58.02
2022-08-21T09:14:45.255Z,58.04
2022-08-21T09:16:52.532Z,58.04
2022-08-21T09:19:15.848Z,58.13
2022-08-21T09:21:42.254Z,57.47
2022-08-21T09:24:16.177Z,57.33
2022-08-21T09:26:22.359Z,56.20
2022-08-21T09:28:24.868Z,57.19
2022-08-21T09:30:32.245Z,56.46
2022-08-21T09:32:38.195Z,55.90
2022-08-21T09:34:46.685Z,55.77
2022-08-21T09:36:51.917Z,55.71
2022-08-21T09:39:00.084Z,56.71
2022-08-21T09:41:13.353Z,54.96
2022-08-21T09:43:20.567Z,55.74
2022-08-21T09:45:23.108Z,54.68
2022-08-21T09:47:28.218Z,55.42
2022-08-21T09:49:31.682Z,55.81
2022-08-21T09:51:38.264Z,54.97
2022-08-21T09:53:46.848Z,54.67
2022-08-21T09:56:07.678Z,55.33
2022-08-21T09:58:10.390Z,55.83
2022-08-21T10:00:27.794Z,55.39
2022-08-21T10:02:33.954Z,55.31
2022-08-21T10:04:37.420Z,55.84
2022-08-21T10:06:40.567Z,55.53
2022-08-21T10:08:47.349Z,55.64
2022-08-21T10:10:56.431Z,55.56
2022-08-21T10:13:12.740Z,54.18
2022-08-21T10:15:24.837Z,54.37
2022-08-21T10:17:44.982Z,54.23
2022-08-21T10:20:09.750Z,54.93
2022-08-21T10:22:33.321Z,53.90
2022-08-21T10:24:46.426Z,54.12
2022-08-21T10:26:58.630Z,54.57
2022-08-21T10:29:36.545Z,53.55
2022-08-21T10:31:45.232Z,54.19
2022-08-21T10:34:08.615Z,53.98
2022-08-21T10:36:16.114Z,53.62
2022-08-21T10:38:52.728Z,53.73
2022-08-21T10:41:15.433Z,53.82
2022-08-21T10:43:38.453Z,53.59
2022-08-21T10:45:55.007Z,53.28
2022-08-21T10:48:05.561Z,53.10
2022-08-21T10:50:24.587Z,53.71
2022-08-21T10:53:31.125Z,53.46
2022-08-21T10:55:46.270Z,53.74
2022-08-21T10:58:06.772Z,52.97
2022-08-21T11:00:13.605Z,52.80
2022-08-21T11:02:29.651Z,52.95
2022-08-21T11:04:49.417Z,52.33
2022-08-21T11:07:00.891Z,52.36
2022-08-21T11:09:14.931Z,53.12
2022-08-21T11:11:23.949Z,53.14
2022-08-21T11:13:45.655Z,52.77
2022-08-21T11:16:11.947Z,52.69
2022-08-21T11:18:22.304Z,52.11
2022-08-21T11:20:50.420Z,51.08
2022-08-21T11:23:22.895Z,50.75
2022-08-21T11:25:41.621Z,50.51
2022-08-21T11:27:50.294Z,51.00
2022-08-21T11:29:58.389Z,50.45
2022-08-21T11:32:08.460Z,50.83
2022-08-21T11:34:23.410Z,50.97
2022-08-21T11:36:51.802Z,51.06
2022-08-21T11:39:08.189Z,50.83
2022-08-21T11:41:29.145Z,50.36
2022-08-21T11:43:37.303Z,51.64
2022-08-21T11:45:43.150Z,51.45
2022-08-21T11:47:53.853Z,51.35
2022-08-21T11:50:29.734Z,50.87
2022-08-21T11:52:44.478Z,51.00
2022-08-21T11:55:11.623Z,51.32
2022-08-21T11:57:26.436Z,50.98
2022-08-21T12:00:01.191Z,50.65
2022-08-21T12:02:10.428Z,51.04
2022-08-21T12:04:35.886Z,51.06
2022-08-21T12:06:42.247Z,50.95
2022-08-21T12:08:47.162Z,51.11
2022-08-21T12:11:03.193Z,51.11
2022-08-21T12:13:23.553Z,51.30
2022-08-21T12:15:42.345Z,51.37
2022-08-21T12:18:02.996Z,51.05
2022-08-21T12:20:22.248Z,50.97
2022-08-21T12:22:38.990Z,51.02
2022-08-21T12:24:47.097Z,51.15
2022-08-21T12:26:55.045Z,50.98
2022-08-21T12:29:29.673Z,50.91
2022-08-21T12:31:34.586Z,51.12
2022-08-21T12:33:43.228Z,50.79
2022-08-21T12:35:46.969Z,51.33
2022-08-21T12:38:14.526Z,50.97
2022-08-21T12:40:37.972Z,50.98
2022-08-21T12:42:58.084Z,50.87
2022-08-21T12:45:12.350Z,51.13
2022-08-21T12:47:19.378Z,51.00
2022-08-21T12:49:44.609Z,51.27
2022-08-21T12:52:25.857Z,51.08
2022-08-21T12:54:38.297Z,51.26
2022-08-21T12:56:41.031Z,51.12
2022-08-21T12:58:51.236Z,51.37
2022-08-21T13:01:04.091Z,51.16
2022-08-21T13:03:08.077Z,51.15
2022-08-21T13:05:15.848Z,50.94
2022-08-21T13:07:27.102Z,51.33
2022-08-21T13:09:33.455Z,51.26
2022-08-21T13:11:41.723Z,52.48
2022-08-21T13:13:50.153Z,53.11
2022-08-21T13:16:03.431Z,53.99
2022-08-21T13:18:08.011Z,53.64
2022-08-21T13:20:29.493Z,54.42
2022-08-21T13:22:35.431Z,54.51
2022-08-21T13:24:42.951Z,54.25
2022-08-21T13:26:46.517Z,54.36
2022-08-21T13:28:51.463Z,55.81
2022-08-21T13:30:56.804Z,55.28
2022-08-21T13:33:01.814Z,55.28
2022-08-21T13:35:23.137Z,56.32
2022-08-21T13:37:31.276Z,57.67
2022-08-21T13:39:33.869Z,55.94
2022-08-21T13:41:39.743Z,55.96
2022-08-21T13:43:47.218Z,56.03
2022-08-21T13:45:53.312Z,55.66
2022-08-21T13:47:56.185Z,55.32
2022-08-21T13:49:59.486Z,54.98
2022-08-21T13:52:05.596Z,54.85
2022-08-21T13:54:24.561Z,54.53
2022-08-21T13:56:34.022Z,55.24
2022-08-21T13:58:45.529Z,56.18
2022-08-21T14:00:51.263Z,55.46
2022-08-21T14:02:55.173Z,55.03
2022-08-21T14:05:04.479Z,55.15
2022-08-21T14:07:19.623Z,55.76
2022-08-21T14:09:31.826Z,55.70
2022-08-21T14:11:36.063Z,55.49
2022-08-21T14:13:49.082Z,55.12
2022-08-21T14:15:59.410Z,55.53
2022-08-21T14:18:23.358Z,56.03
2022-08-21T14:20:28.547Z,55.46
2022-08-21T14:22:30.685Z,55.46
2022-08-21T14:24:35.761Z,55.39
2022-08-21T14:26:55.433Z,55.55
2022-08-21T14:29:01.690Z,55.15
2022-08-21T14:31:21.582Z,55.51
2022-08-21T14:33:30.275Z,55.23
2022-08-21T14:35:32.816Z,54.98
2022-08-21T14:37:38.795Z,55.04
2022-08-21T14:39:44.750Z,54.71
2022-08-21T14:41:49.643Z,54.84
2022-08-21T14:43:55.750Z,54.65
2022-08-21T14:46:06.536Z,54.84
2022-08-21T14:48:09.676Z,54.65
2022-08-21T14:50:15.348Z,54.54
2022-08-21T14:52:17.804Z,54.56
2022-08-21T14:54:20.479Z,54.17
2022-08-21T14:56:26.977Z,54.45
2022-08-21T14:58:29.447Z,54.35
2022-08-21T15:00:36.163Z,53.86
2022-08-21T15:02:38.646Z,54.08
2022-08-21T15:04:40.823Z,54.16
2022-08-21T15:06:43.134Z,54.07
2022-08-21T15:08:45.862Z,54.05
2022-08-21T15:11:11.108Z,53.52
2022-08-21T15:13:14.854Z,53.68
2022-08-21T15:15:20.260Z,53.66
2022-08-21T15:17:22.920Z,53.63
2022-08-21T15:19:25.192Z,53.26
2022-08-21T15:21:30.747Z,52.99
2022-08-21T15:23:32.993Z,53.34
2022-08-21T15:25:36.873Z,53.17
2022-08-21T15:27:39.544Z,53.36
2022-08-21T15:29:43.612Z,53.32
2022-08-21T15:32:03.280Z,53.11
2022-08-21T15:34:05.518Z,53.34
2022-08-21T15:36:08.001Z,53.12
2022-08-21T15:38:13.412Z,53.12
2022-08-21T15:40:17.015Z,53.06
2022-08-21T15:42:20.733Z,52.92
2022-08-21T15:44:24.959Z,52.72
2022-08-21T15:46:27.403Z,52.86
2022-08-21T15:48:30.439Z,52.52
2022-08-21T15:50:37.666Z,52.21
2022-08-21T15:52:40.780Z,52.35
2022-08-21T15:54:43.437Z,52.43
2022-08-21T15:56:51.066Z,52.57
2022-08-21T15:58:58.791Z,52.29
2022-08-21T16:01:02.407Z,52.19
2022-08-21T16:03:07.463Z,52.34
2022-08-21T16:05:12.863Z,52.22
2022-08-21T16:07:16.097Z,52.08
2022-08-21T16:09:23.931Z,51.85
2022-08-21T16:11:26.584Z,52.03
2022-08-21T16:13:37.837Z,51.82
2022-08-21T16:15:43.216Z,51.76
2022-08-21T16:17:50.410Z,51.70
2022-08-21T16:19:52.630Z,51.69
2022-08-21T16:21:54.873Z,51.78
2022-08-21T16:23:57.428Z,52.06
2022-08-21T16:26:00.809Z,51.72
2022-08-21T16:28:03.921Z,51.60
2022-08-21T16:30:08.561Z,52.03
2022-08-21T16:32:11.150Z,51.65
2022-08-21T16:34:18.839Z,51.87
2022-08-21T16:36:24.787Z,51.83
2022-08-21T16:38:29.383Z,52.06
2022-08-21T16:40:31.695Z,51.67
2022-08-21T16:42:34.843Z,51.46
2022-08-21T16:44:39.808Z,51.81
2022-08-21T16:46:42.590Z,51.71
2022-08-21T16:48:45.130Z,51.81
2022-08-21T16:50:50.965Z,51.48
2022-08-21T16:52:54.566Z,51.77
2022-08-21T16:54:56.846Z,52.11
2022-08-21T16:57:00.803Z,52.19
2022-08-21T16:59:05.256Z,51.98
2022-08-21T17:01:15.413Z,51.52
2022-08-21T17:03:23.530Z,52.04
2022-08-21T17:05:25.752Z,51.36
2022-08-21T17:07:30.785Z,51.29
2022-08-21T17:09:35.515Z,51.13
2022-08-21T17:11:41.255Z,51.00
2022-08-21T17:13:43.872Z,50.93
2022-08-21T17:15:46.369Z,50.63
2022-08-21T17:17:49.398Z,50.60
2022-08-21T17:19:51.783Z,51.29
2022-08-21T17:21:54.417Z,52.64
2022-08-21T17:23:59.740Z,52.52
2022-08-21T17:26:02.920Z,53.62
2022-08-21T17:28:09.911Z,54.78
2022-08-21T17:30:12.888Z,54.26
2022-08-21T17:32:16.478Z,55.16
2022-08-21T17:34:18.907Z,54.93
2022-08-21T17:36:27.020Z,56.34
2022-08-21T17:38:29.901Z,55.89
2022-08-21T17:40:36.932Z,56.17
2022-08-21T17:42:42.283Z,55.76
2022-08-21T17:44:45.932Z,56.35
2022-08-21T17:46:48.564Z,55.57
2022-08-21T17:48:52.258Z,55.84
2022-08-21T17:50:54.622Z,55.33
2022-08-21T17:52:56.959Z,56.87
2022-08-21T17:54:59.250Z,55.70
2022-08-21T17:57:02.588Z,56.00
2022-08-21T17:59:06.384Z,54.63
2022-08-21T18:01:11.348Z,55.46
2022-08-21T18:03:18.695Z,55.34
2022-08-21T18:05:21.788Z,55.56
2022-08-21T18:07:32.196Z,55.96
2022-08-21T18:09:35.137Z,55.51
2022-08-21T18:11:37.966Z,55.71
2022-08-21T18:13:41.073Z,55.29
2022-08-21T18:15:46.495Z,54.74
2022-08-21T18:17:51.534Z,54.96
2022-08-21T18:19:53.775Z,55.15
2022-08-21T18:21:58.820Z,55.07
2022-08-21T18:24:04.343Z,55.11
2022-08-21T18:26:09.208Z,54.37
2022-08-21T18:28:12.168Z,54.99
2022-08-21T18:30:17.830Z,55.07
2022-08-21T18:32:31.199Z,55.09
2022-08-21T18:34:41.590Z,54.28
2022-08-21T18:36:44.052Z,54.72
2022-08-21T18:38:46.136Z,54.10
2022-08-21T18:40:56.075Z,55.72
2022-08-21T18:43:01.813Z,55.28
2022-08-21T18:45:06.573Z,55.45
2022-08-21T18:47:14.397Z,54.74
2022-08-21T18:49:19.891Z,54.49
2022-08-21T18:51:22.307Z,54.37
2022-08-21T18:56:15.896Z,54.77
2022-08-21T18:58:19.351Z,53.92
2022-08-21T19:00:25.405Z,53.68
2022-08-21T19:02:27.152Z,54.77
2022-08-21T19:04:43.698Z,54.28
2022-08-21T19:06:46.713Z,54.51
2022-08-21T19:08:48.682Z,54.68
2022-08-21T19:10:55.041Z,54.68
2022-08-21T19:12:59.938Z,55.69
2022-08-21T19:15:02.995Z,56.28
2022-08-21T19:17:04.972Z,55.63
2022-08-21T19:19:08.095Z,56.57
2022-08-21T19:21:10.296Z,55.88
2022-08-21T19:23:15.171Z,56.55
2022-08-21T19:25:17.248Z,56.56
2022-08-21T19:27:19.374Z,55.98
2022-08-21T19:29:21.961Z,56.81
2022-08-21T19:31:42.829Z,56.57
2022-08-21T19:33:50.748Z,56.81
2022-08-21T19:35:53.187Z,56.63
2022-08-21T19:37:55.210Z,55.96
2022-08-21T19:39:57.438Z,56.16
2022-08-21T19:42:00.308Z,56.80
2022-08-21T19:44:06.086Z,56.74
2022-08-21T19:46:08.445Z,57.00
2022-08-21T19:48:10.586Z,56.45
2022-08-21T19:50:18.124Z,56.53
2022-08-21T19:52:23.869Z,57.30
2022-08-21T19:54:30.471Z,56.97
2022-08-21T19:56:34.251Z,58.44
2022-08-21T19:58:40.167Z,57.90
2022-08-21T20:00:44.019Z,58.06
2022-08-21T20:02:58.785Z,57.48
2022-08-21T20:05:00.898Z,57.09
2022-08-21T20:07:04.141Z,57.49
2022-08-21T20:09:10.478Z,57.82
2022-08-21T20:11:15.941Z,57.88
2022-08-21T20:13:23.147Z,58.02
2022-08-21T20:15:25.246Z,57.49
2022-08-21T20:17:30.584Z,58.13
2022-08-21T20:19:32.857Z,58.11
2022-08-21T20:21:43.795Z,58.56
2022-08-21T20:23:48.808Z,58.37
2022-08-21T20:25:55.911Z,58.24
2022-08-21T20:27:58.325Z,57.92
2022-08-21T20:30:00.454Z,57.69
2022-08-21T20:32:04.671Z,57.84
2022-08-21T20:34:07.131Z,58.07
2022-08-21T20:36:10.261Z,57.70
2022-08-21T20:38:13.378Z,58.58
2022-08-21T20:40:16.641Z,57.66
2022-08-21T20:42:24.863Z,57.50
2022-08-21T20:44:31.479Z,58.32
2022-08-21T20:46:35.338Z,58.09
2022-08-21T20:48:49.380Z,57.86
2022-08-21T20:51:18.316Z,58.79
2022-08-21T20:53:23.716Z,58.14
2022-08-21T20:55:29.723Z,58.52
2022-08-21T20:57:57.482Z,58.19
2022-08-21T21:00:14.552Z,59.07
2022-08-21T21:02:16.814Z,58.78
2022-08-21T21:04:53.805Z,58.88
2022-08-21T21:06:58.981Z,58.71
2022-08-21T21:09:13.676Z,58.68
2022-08-21T21:11:21.627Z,59.07
2022-08-21T21:13:33.204Z,59.36
2022-08-21T21:15:36.941Z,58.47
2022-08-21T21:17:50.822Z,59.19
2022-08-21T21:20:03.249Z,58.96
2022-08-21T21:22:10.099Z,58.41
2022-08-21T21:24:27.536Z,58.88
2022-08-21T21:26:56.904Z,58.96
2022-08-21T21:31:29.708Z,59.48
2022-08-21T21:33:35.038Z,60.07
2022-08-21T21:35:44.812Z,59.82
2022-08-21T21:38:15.213Z,59.40
2022-08-21T21:40:45.182Z,60.77
2022-08-21T21:42:59.124Z,61.41
2022-08-21T21:45:09.416Z,60.90
2022-08-21T21:47:21.542Z,60.65
2022-08-21T21:49:50.201Z,60.58
2022-08-21T21:52:24.891Z,61.53
2022-08-21T21:54:51.997Z,60.66
2022-08-21T21:57:12.183Z,60.56
2022-08-21T21:59:53.733Z,60.75
2022-08-21T22:02:20.770Z,62.25
2022-08-21T22:04:28.354Z,62.18
2022-08-21T22:06:40.710Z,61.64
2022-08-21T22:08:48.889Z,61.97
2022-08-21T22:11:00.473Z,61.54
2022-08-21T22:13:26.142Z,61.66
2022-08-21T22:15:29.146Z,61.74
2022-08-21T22:17:51.181Z,62.23
2022-08-21T22:19:57.611Z,62.28
2022-08-21T22:22:11.313Z,61.62
2022-08-21T22:24:22.594Z,61.92
2022-08-21T22:26:44.185Z,62.87
2022-08-21T22:28:49.940Z,61.55
2022-08-21T22:31:10.186Z,61.27
2022-08-21T22:33:21.881Z,63.15
2022-08-21T22:35:30.045Z,62.61
2022-08-21T22:37:41.061Z,62.10
2022-08-21T22:39:45.834Z,61.87
2022-08-21T22:41:48.217Z,61.75
2022-08-21T22:43:52.536Z,62.33
2022-08-21T22:46:10.645Z,63.32
2022-08-21T22:48:22.352Z,62.88
2022-08-21T22:50:24.697Z,63.13
2022-08-21T22:52:29.840Z,63.12
2022-08-21T22:54:38.840Z,63.56
2022-08-21T22:56:43.578Z,63.24
2022-08-21T22:58:56.542Z,63.09
2022-08-21T23:01:17.070Z,63.11
2022-08-21T23:03:27.179Z,64.02
2022-08-21T23:05:37.211Z,63.30
2022-08-21T23:07:42.898Z,62.97
2022-08-21T23:09:50.129Z,62.42
2022-08-21T23:12:01.059Z,62.70
2022-08-21T23:14:04.846Z,62.39
2022-08-21T23:16:28.917Z,61.86
2022-08-21T23:19:12.207Z,61.97
2022-08-21T23:22:15.930Z,62.53
2022-08-21T23:24:33.218Z,61.66
2022-08-21T23:27:00.417Z,62.73
2022-08-21T23:29:14.167Z,61.74
2022-08-21T23:31:38.544Z,61.84
2022-08-21T23:33:47.659Z,62.99
2022-08-21T23:36:35.042Z,63.08
2022-08-21T23:39:01.606Z,64.02
2022-08-21T23:41:34.156Z,63.88
2022-08-21T23:47:01.292Z,63.50
2022-08-21T23:49:21.467Z,63.26
2022-08-21T23:51:35.836Z,63.09
2022-08-21T23:53:55.972Z,63.29
2022-08-21T23:56:23.027Z,62.65
2022-08-21T23:58:56.550Z,63.74
